sensor_id;sensor_type;location;lat;lon;timestamp;P1;durP1;ratioP1;P2;durP2;ratioP2
37715;SDS011;23562;50.540;12.504;2023-06-22T00:00:42;12.63;;;10.63;;
37715;SDS011;23562;50.540;12.504;2023-06-22T00:03:08;13.35;;;10.60;;
37715;SDS011;23562;50.540;12.504;2023-06-22T00:05:33;16.00;;;9.97;;
37715;SDS011;23562;50.540;12.504;2023-06-22T00:08:02;13.13;;;10.43;;
37715;SDS011;23562;50.540;12.504;2023-06-22T00:10:27;13.50;;;10.30;;
37715;SDS011;23562;50.540;12.504;2023-06-22T00:12:52;13.23;;;10.48;;
37715;SDS011;23562;50.540;12.504;2023-06-22T00:15:17;14.60;;;10.88;;
37715;SDS011;23562;50.540;12.504;2023-06-22T00:17:42;14.70;;;9.98;;
37715;SDS011;23562;50.540;12.504;2023-06-22T00:20:07;11.15;;;10.00;;
37715;SDS011;23562;50.540;12.504;2023-06-22T00:22:34;13.30;;;10.90;;
37715;SDS011;23562;50.540;12.504;2023-06-22T00:25:03;12.63;;;10.48;;
37715;SDS011;23562;50.540;12.504;2023-06-22T00:27:28;12.90;;;10.13;;
37715;SDS011;23562;50.540;12.504;2023-06-22T00:29:54;14.43;;;10.90;;
37715;SDS011;23562;50.540;12.504;2023-06-22T00:32:19;12.50;;;10.82;;
37715;SDS011;23562;50.540;12.504;2023-06-22T00:34:44;13.97;;;10.30;;
37715;SDS011;23562;50.540;12.504;2023-06-22T00:37:09;17.80;;;10.60;;
37715;SDS011;23562;50.540;12.504;2023-06-22T00:39:36;14.07;;;10.52;;
37715;SDS011;23562;50.540;12.504;2023-06-22T00:42:01;15.07;;;10.07;;
37715;SDS011;23562;50.540;12.504;2023-06-22T00:44:26;14.50;;;11.07;;
37715;SDS011;23562;50.540;12.504;2023-06-22T00:46:51;13.23;;;10.40;;
37715;SDS011;23562;50.540;12.504;2023-06-22T00:49:16;13.55;;;10.60;;
37715;SDS011;23562;50.540;12.504;2023-06-22T00:51:42;12.68;;;10.98;;
37715;SDS011;23562;50.540;12.504;2023-06-22T00:54:10;14.13;;;10.35;;
37715;SDS011;23562;50.540;12.504;2023-06-22T00:56:36;16.45;;;10.55;;
37715;SDS011;23562;50.540;12.504;2023-06-22T00:59:02;11.93;;;10.18;;
37715;SDS011;23562;50.540;12.504;2023-06-22T01:01:28;13.25;;;10.65;;
37715;SDS011;23562;50.540;12.504;2023-06-22T01:03:53;13.45;;;10.95;;
37715;SDS011;23562;50.540;12.504;2023-06-22T01:06:28;15.45;;;11.27;;
37715;SDS011;23562;50.540;12.504;2023-06-22T01:08:57;14.70;;;11.45;;
37715;SDS011;23562;50.540;12.504;2023-06-22T01:11:26;16.08;;;12.30;;
37715;SDS011;23562;50.540;12.504;2023-06-22T01:14:00;14.85;;;11.20;;
37715;SDS011;23562;50.540;12.504;2023-06-22T01:16:28;14.18;;;10.43;;
37715;SDS011;23562;50.540;12.504;2023-06-22T01:18:54;14.23;;;11.20;;
37715;SDS011;23562;50.540;12.504;2023-06-22T01:21:20;17.33;;;11.52;;
37715;SDS011;23562;50.540;12.504;2023-06-22T01:26:35;17.20;;;11.50;;
37715;SDS011;23562;50.540;12.504;2023-06-22T01:29:03;16.83;;;10.82;;
37715;SDS011;23562;50.540;12.504;2023-06-22T01:31:29;18.38;;;11.25;;
37715;SDS011;23562;50.540;12.504;2023-06-22T01:34:04;13.25;;;11.40;;
37715;SDS011;23562;50.540;12.504;2023-06-22T01:36:30;15.60;;;11.30;;
37715;SDS011;23562;50.540;12.504;2023-06-22T01:38:56;16.00;;;10.82;;
37715;SDS011;23562;50.540;12.504;2023-06-22T01:41:24;16.98;;;11.02;;
37715;SDS011;23562;50.540;12.504;2023-06-22T01:43:49;13.43;;;11.60;;
37715;SDS011;23562;50.540;12.504;2023-06-22T01:46:15;14.40;;;11.52;;
37715;SDS011;23562;50.540;12.504;2023-06-22T01:48:40;15.17;;;11.97;;
37715;SDS011;23562;50.540;12.504;2023-06-22T01:51:05;16.90;;;11.77;;
37715;SDS011;23562;50.540;12.504;2023-06-22T01:53:30;13.00;;;11.32;;
37715;SDS011;23562;50.540;12.504;2023-06-22T01:55:56;13.53;;;11.50;;
37715;SDS011;23562;50.540;12.504;2023-06-22T01:58:21;14.68;;;11.57;;
37715;SDS011;23562;50.540;12.504;2023-06-22T02:00:49;17.48;;;11.98;;
37715;SDS011;23562;50.540;12.504;2023-06-22T02:03:18;16.40;;;12.43;;
37715;SDS011;23562;50.540;12.504;2023-06-22T02:05:50;16.92;;;13.00;;
37715;SDS011;23562;50.540;12.504;2023-06-22T02:08:30;13.68;;;11.88;;
37715;SDS011;23562;50.540;12.504;2023-06-22T02:10:56;18.27;;;11.38;;
37715;SDS011;23562;50.540;12.504;2023-06-22T02:13:23;14.48;;;12.27;;
37715;SDS011;23562;50.540;12.504;2023-06-22T02:15:49;13.88;;;11.30;;
37715;SDS011;23562;50.540;12.504;2023-06-22T02:18:14;16.55;;;12.13;;
37715;SDS011;23562;50.540;12.504;2023-06-22T02:20:39;14.23;;;11.20;;
37715;SDS011;23562;50.540;12.504;2023-06-22T02:23:05;19.23;;;11.65;;
37715;SDS011;23562;50.540;12.504;2023-06-22T02:25:31;14.07;;;11.48;;
37715;SDS011;23562;50.540;12.504;2023-06-22T02:27:56;13.02;;;11.50;;
37715;SDS011;23562;50.540;12.504;2023-06-22T02:30:21;14.13;;;11.45;;
37715;SDS011;23562;50.540;12.504;2023-06-22T02:32:46;13.88;;;11.25;;
37715;SDS011;23562;50.540;12.504;2023-06-22T02:35:11;14.57;;;11.32;;
37715;SDS011;23562;50.540;12.504;2023-06-22T02:37:37;14.87;;;11.50;;
37715;SDS011;23562;50.540;12.504;2023-06-22T02:40:06;16.17;;;12.13;;
37715;SDS011;23562;50.540;12.504;2023-06-22T02:42:33;15.05;;;11.93;;
37715;SDS011;23562;50.540;12.504;2023-06-22T02:44:58;14.48;;;12.00;;
37715;SDS011;23562;50.540;12.504;2023-06-22T02:47:24;15.13;;;12.10;;
37715;SDS011;23562;50.540;12.504;2023-06-22T02:49:49;15.45;;;12.32;;
37715;SDS011;23562;50.540;12.504;2023-06-22T02:52:14;15.43;;;11.95;;
37715;SDS011;23562;50.540;12.504;2023-06-22T02:54:39;16.48;;;11.48;;
37715;SDS011;23562;50.540;12.504;2023-06-22T02:57:04;14.00;;;11.48;;
37715;SDS011;23562;50.540;12.504;2023-06-22T02:59:29;14.70;;;12.57;;
37715;SDS011;23562;50.540;12.504;2023-06-22T03:01:54;13.43;;;11.57;;
37715;SDS011;23562;50.540;12.504;2023-06-22T03:04:19;13.48;;;12.07;;
37715;SDS011;23562;50.540;12.504;2023-06-22T03:06:45;14.35;;;11.80;;
37715;SDS011;23562;50.540;12.504;2023-06-22T03:09:15;15.73;;;11.52;;
37715;SDS011;23562;50.540;12.504;2023-06-22T03:11:40;15.88;;;11.13;;
37715;SDS011;23562;50.540;12.504;2023-06-22T03:14:05;14.20;;;11.75;;
37715;SDS011;23562;50.540;12.504;2023-06-22T03:16:31;18.27;;;12.18;;
37715;SDS011;23562;50.540;12.504;2023-06-22T03:18:56;13.63;;;11.75;;
37715;SDS011;23562;50.540;12.504;2023-06-22T03:21:21;14.82;;;11.75;;
37715;SDS011;23562;50.540;12.504;2023-06-22T03:23:47;18.10;;;12.30;;
37715;SDS011;23562;50.540;12.504;2023-06-22T03:26:12;13.30;;;11.90;;
37715;SDS011;23562;50.540;12.504;2023-06-22T03:28:38;14.07;;;11.25;;
37715;SDS011;23562;50.540;12.504;2023-06-22T03:31:03;14.27;;;12.17;;
37715;SDS011;23562;50.540;12.504;2023-06-22T03:33:29;16.25;;;11.95;;
37715;SDS011;23562;50.540;12.504;2023-06-22T03:35:54;14.25;;;11.32;;
37715;SDS011;23562;50.540;12.504;2023-06-22T03:38:20;17.07;;;12.63;;
37715;SDS011;23562;50.540;12.504;2023-06-22T03:40:45;16.50;;;11.75;;
37715;SDS011;23562;50.540;12.504;2023-06-22T03:43:10;12.90;;;11.50;;
37715;SDS011;23562;50.540;12.504;2023-06-22T03:45:35;15.70;;;12.40;;
37715;SDS011;23562;50.540;12.504;2023-06-22T03:48:00;13.50;;;11.68;;
37715;SDS011;23562;50.540;12.504;2023-06-22T03:50:25;14.15;;;12.38;;
37715;SDS011;23562;50.540;12.504;2023-06-22T03:52:51;14.13;;;11.77;;
37715;SDS011;23562;50.540;12.504;2023-06-22T03:55:17;13.90;;;11.40;;
37715;SDS011;23562;50.540;12.504;2023-06-22T03:57:42;13.23;;;10.70;;
37715;SDS011;23562;50.540;12.504;2023-06-22T04:00:08;15.77;;;11.40;;
37715;SDS011;23562;50.540;12.504;2023-06-22T04:02:33;14.48;;;10.80;;
37715;SDS011;23562;50.540;12.504;2023-06-22T04:04:58;13.20;;;11.03;;
37715;SDS011;23562;50.540;12.504;2023-06-22T04:07:23;16.63;;;11.68;;
37715;SDS011;23562;50.540;12.504;2023-06-22T04:09:48;14.97;;;12.17;;
37715;SDS011;23562;50.540;12.504;2023-06-22T04:12:13;12.75;;;10.95;;
37715;SDS011;23562;50.540;12.504;2023-06-22T04:14:38;13.73;;;10.63;;
37715;SDS011;23562;50.540;12.504;2023-06-22T04:17:04;13.57;;;10.65;;
37715;SDS011;23562;50.540;12.504;2023-06-22T04:19:29;12.38;;;10.52;;
37715;SDS011;23562;50.540;12.504;2023-06-22T04:21:54;13.37;;;10.23;;
37715;SDS011;23562;50.540;12.504;2023-06-22T04:24:19;11.90;;;10.15;;
37715;SDS011;23562;50.540;12.504;2023-06-22T04:26:44;14.18;;;11.15;;
37715;SDS011;23562;50.540;12.504;2023-06-22T04:29:11;12.32;;;10.88;;
37715;SDS011;23562;50.540;12.504;2023-06-22T04:31:37;15.23;;;11.10;;
37715;SDS011;23562;50.540;12.504;2023-06-22T04:34:03;15.70;;;11.95;;
37715;SDS011;23562;50.540;12.504;2023-06-22T04:36:38;14.48;;;11.20;;
37715;SDS011;23562;50.540;12.504;2023-06-22T04:39:04;14.57;;;10.98;;
37715;SDS011;23562;50.540;12.504;2023-06-22T04:41:29;14.93;;;11.70;;
37715;SDS011;23562;50.540;12.504;2023-06-22T04:43:54;14.15;;;11.35;;
37715;SDS011;23562;50.540;12.504;2023-06-22T04:46:24;15.57;;;11.88;;
37715;SDS011;23562;50.540;12.504;2023-06-22T04:48:50;14.18;;;11.10;;
37715;SDS011;23562;50.540;12.504;2023-06-22T04:51:15;12.47;;;10.97;;
37715;SDS011;23562;50.540;12.504;2023-06-22T04:53:40;13.38;;;11.52;;
37715;SDS011;23562;50.540;12.504;2023-06-22T04:56:06;12.77;;;10.98;;
37715;SDS011;23562;50.540;12.504;2023-06-22T04:58:31;12.43;;;10.77;;
37715;SDS011;23562;50.540;12.504;2023-06-22T05:00:57;12.65;;;10.57;;
37715;SDS011;23562;50.540;12.504;2023-06-22T05:03:24;12.70;;;10.47;;
37715;SDS011;23562;50.540;12.504;2023-06-22T05:05:50;11.10;;;9.77;;
37715;SDS011;23562;50.540;12.504;2023-06-22T05:08:16;16.35;;;10.82;;
37715;SDS011;23562;50.540;12.504;2023-06-22T05:10:41;12.50;;;11.18;;
37715;SDS011;23562;50.540;12.504;2023-06-22T05:13:06;12.65;;;11.27;;
37715;SDS011;23562;50.540;12.504;2023-06-22T05:15:31;12.88;;;10.60;;
37715;SDS011;23562;50.540;12.504;2023-06-22T05:18:01;12.43;;;10.48;;
37715;SDS011;23562;50.540;12.504;2023-06-22T05:20:30;14.57;;;10.02;;
37715;SDS011;23562;50.540;12.504;2023-06-22T05:22:55;13.20;;;11.32;;
37715;SDS011;23562;50.540;12.504;2023-06-22T05:25:20;12.63;;;10.77;;
37715;SDS011;23562;50.540;12.504;2023-06-22T05:27:45;17.30;;;11.57;;
37715;SDS011;23562;50.540;12.504;2023-06-22T05:30:11;13.52;;;11.32;;
37715;SDS011;23562;50.540;12.504;2023-06-22T05:32:36;14.73;;;10.93;;
37715;SDS011;23562;50.540;12.504;2023-06-22T05:35:02;14.98;;;11.77;;
37715;SDS011;23562;50.540;12.504;2023-06-22T05:37:28;13.15;;;10.85;;
37715;SDS011;23562;50.540;12.504;2023-06-22T05:39:53;14.23;;;11.13;;
37715;SDS011;23562;50.540;12.504;2023-06-22T05:42:20;14.18;;;10.60;;
37715;SDS011;23562;50.540;12.504;2023-06-22T05:44:45;14.50;;;10.93;;
37715;SDS011;23562;50.540;12.504;2023-06-22T05:47:11;13.75;;;10.23;;
37715;SDS011;23562;50.540;12.504;2023-06-22T05:49:36;12.70;;;10.48;;
37715;SDS011;23562;50.540;12.504;2023-06-22T05:52:01;15.80;;;10.85;;
37715;SDS011;23562;50.540;12.504;2023-06-22T05:54:27;13.38;;;9.73;;
37715;SDS011;23562;50.540;12.504;2023-06-22T05:56:53;11.85;;;9.65;;
37715;SDS011;23562;50.540;12.504;2023-06-22T05:59:18;11.40;;;9.70;;
37715;SDS011;23562;50.540;12.504;2023-06-22T06:01:43;12.00;;;9.80;;
37715;SDS011;23562;50.540;12.504;2023-06-22T06:04:08;10.70;;;9.13;;
37715;SDS011;23562;50.540;12.504;2023-06-22T06:06:34;13.10;;;9.82;;
37715;SDS011;23562;50.540;12.504;2023-06-22T06:09:02;14.13;;;9.90;;
37715;SDS011;23562;50.540;12.504;2023-06-22T06:11:27;10.93;;;9.00;;
37715;SDS011;23562;50.540;12.504;2023-06-22T06:13:52;11.88;;;9.63;;
37715;SDS011;23562;50.540;12.504;2023-06-22T06:16:17;11.50;;;10.13;;
37715;SDS011;23562;50.540;12.504;2023-06-22T06:18:42;13.07;;;10.40;;
37715;SDS011;23562;50.540;12.504;2023-06-22T06:21:07;11.55;;;10.35;;
37715;SDS011;23562;50.540;12.504;2023-06-22T06:23:32;12.43;;;9.68;;
37715;SDS011;23562;50.540;12.504;2023-06-22T06:25:58;16.45;;;9.88;;
37715;SDS011;23562;50.540;12.504;2023-06-22T06:28:25;11.32;;;9.70;;
37715;SDS011;23562;50.540;12.504;2023-06-22T06:30:53;11.70;;;10.35;;
37715;SDS011;23562;50.540;12.504;2023-06-22T06:33:19;12.15;;;10.02;;
37715;SDS011;23562;50.540;12.504;2023-06-22T06:35:45;12.02;;;10.40;;
37715;SDS011;23562;50.540;12.504;2023-06-22T06:38:10;12.82;;;9.90;;
37715;SDS011;23562;50.540;12.504;2023-06-22T06:40:36;12.27;;;10.07;;
37715;SDS011;23562;50.540;12.504;2023-06-22T06:43:01;14.40;;;10.67;;
37715;SDS011;23562;50.540;12.504;2023-06-22T06:45:26;12.90;;;10.43;;
37715;SDS011;23562;50.540;12.504;2023-06-22T06:47:53;11.45;;;9.88;;
37715;SDS011;23562;50.540;12.504;2023-06-22T06:50:18;13.70;;;10.47;;
37715;SDS011;23562;50.540;12.504;2023-06-22T06:52:44;15.02;;;11.38;;
37715;SDS011;23562;50.540;12.504;2023-06-22T06:55:09;13.30;;;11.15;;
37715;SDS011;23562;50.540;12.504;2023-06-22T06:57:37;14.50;;;11.10;;
37715;SDS011;23562;50.540;12.504;2023-06-22T07:00:04;13.07;;;9.88;;
37715;SDS011;23562;50.540;12.504;2023-06-22T07:02:34;13.00;;;11.30;;
37715;SDS011;23562;50.540;12.504;2023-06-22T07:04:59;12.75;;;11.10;;
37715;SDS011;23562;50.540;12.504;2023-06-22T07:07:24;12.63;;;10.82;;
37715;SDS011;23562;50.540;12.504;2023-06-22T07:09:49;13.73;;;10.68;;
37715;SDS011;23562;50.540;12.504;2023-06-22T07:12:14;12.52;;;10.60;;
37715;SDS011;23562;50.540;12.504;2023-06-22T07:14:40;12.70;;;10.70;;
37715;SDS011;23562;50.540;12.504;2023-06-22T07:17:05;12.70;;;10.67;;
37715;SDS011;23562;50.540;12.504;2023-06-22T07:19:32;13.70;;;10.73;;
37715;SDS011;23562;50.540;12.504;2023-06-22T07:21:57;13.60;;;11.43;;
37715;SDS011;23562;50.540;12.504;2023-06-22T07:24:22;16.13;;;11.77;;
37715;SDS011;23562;50.540;12.504;2023-06-22T07:26:48;12.50;;;11.20;;
37715;SDS011;23562;50.540;12.504;2023-06-22T07:29:14;13.98;;;11.63;;
37715;SDS011;23562;50.540;12.504;2023-06-22T07:31:40;12.50;;;10.87;;
37715;SDS011;23562;50.540;12.504;2023-06-22T07:34:06;13.77;;;11.95;;
37715;SDS011;23562;50.540;12.504;2023-06-22T07:36:31;14.50;;;11.70;;
37715;SDS011;23562;50.540;12.504;2023-06-22T07:38:56;14.57;;;11.80;;
37715;SDS011;23562;50.540;12.504;2023-06-22T07:41:21;18.13;;;12.05;;
37715;SDS011;23562;50.540;12.504;2023-06-22T07:43:47;13.82;;;12.32;;
37715;SDS011;23562;50.540;12.504;2023-06-22T07:46:12;14.03;;;12.27;;
37715;SDS011;23562;50.540;12.504;2023-06-22T07:48:38;13.10;;;11.70;;
37715;SDS011;23562;50.540;12.504;2023-06-22T07:51:03;16.43;;;12.23;;
37715;SDS011;23562;50.540;12.504;2023-06-22T07:53:28;15.82;;;12.73;;
37715;SDS011;23562;50.540;12.504;2023-06-22T07:55:53;13.48;;;11.77;;
37715;SDS011;23562;50.540;12.504;2023-06-22T07:58:18;14.02;;;11.60;;
37715;SDS011;23562;50.540;12.504;2023-06-22T08:00:45;13.85;;;12.45;;
37715;SDS011;23562;50.540;12.504;2023-06-22T08:03:10;14.30;;;12.80;;
37715;SDS011;23562;50.540;12.504;2023-06-22T08:05:35;13.70;;;11.98;;
37715;SDS011;23562;50.540;12.504;2023-06-22T08:08:00;13.38;;;11.73;;
37715;SDS011;23562;50.540;12.504;2023-06-22T08:10:25;13.35;;;11.68;;
37715;SDS011;23562;50.540;12.504;2023-06-22T08:12:51;12.87;;;11.57;;
37715;SDS011;23562;50.540;12.504;2023-06-22T08:15:17;13.00;;;11.63;;
37715;SDS011;23562;50.540;12.504;2023-06-22T08:17:43;15.53;;;12.60;;
37715;SDS011;23562;50.540;12.504;2023-06-22T08:20:08;16.15;;;11.48;;
37715;SDS011;23562;50.540;12.504;2023-06-22T08:22:35;15.90;;;11.43;;
37715;SDS011;23562;50.540;12.504;2023-06-22T08:25:01;13.40;;;11.75;;
37715;SDS011;23562;50.540;12.504;2023-06-22T08:27:26;12.75;;;11.35;;
37715;SDS011;23562;50.540;12.504;2023-06-22T08:29:53;13.52;;;11.77;;
37715;SDS011;23562;50.540;12.504;2023-06-22T08:32:23;12.35;;;11.15;;
37715;SDS011;23562;50.540;12.504;2023-06-22T08:34:48;15.27;;;11.25;;
37715;SDS011;23562;50.540;12.504;2023-06-22T08:37:13;11.60;;;10.35;;
37715;SDS011;23562;50.540;12.504;2023-06-22T08:39:38;14.05;;;10.20;;
37715;SDS011;23562;50.540;12.504;2023-06-22T08:42:04;11.82;;;9.90;;
37715;SDS011;23562;50.540;12.504;2023-06-22T08:44:29;11.75;;;9.82;;
37715;SDS011;23562;50.540;12.504;2023-06-22T08:46:54;11.13;;;10.02;;
37715;SDS011;23562;50.540;12.504;2023-06-22T08:49:19;11.48;;;9.32;;
37715;SDS011;23562;50.540;12.504;2023-06-22T08:51:44;12.50;;;10.27;;
37715;SDS011;23562;50.540;12.504;2023-06-22T08:54:12;13.20;;;9.63;;
37715;SDS011;23562;50.540;12.504;2023-06-22T08:56:38;11.40;;;10.25;;
37715;SDS011;23562;50.540;12.504;2023-06-22T08:59:03;10.82;;;8.60;;
37715;SDS011;23562;50.540;12.504;2023-06-22T09:01:28;9.57;;;8.20;;
37715;SDS011;23562;50.540;12.504;2023-06-22T09:03:53;9.20;;;7.97;;
37715;SDS011;23562;50.540;12.504;2023-06-22T09:06:22;11.07;;;8.52;;
37715;SDS011;23562;50.540;12.504;2023-06-22T09:08:48;11.68;;;8.07;;
37715;SDS011;23562;50.540;12.504;2023-06-22T09:11:14;9.77;;;8.40;;
37715;SDS011;23562;50.540;12.504;2023-06-22T09:13:39;9.50;;;8.50;;
37715;SDS011;23562;50.540;12.504;2023-06-22T09:16:04;12.13;;;8.23;;
37715;SDS011;23562;50.540;12.504;2023-06-22T09:18:29;9.20;;;7.40;;
37715;SDS011;23562;50.540;12.504;2023-06-22T09:20:54;10.73;;;7.40;;
37715;SDS011;23562;50.540;12.504;2023-06-22T09:23:19;8.90;;;7.60;;
37715;SDS011;23562;50.540;12.504;2023-06-22T09:25:44;10.60;;;8.35;;
37715;SDS011;23562;50.540;12.504;2023-06-22T09:28:11;10.70;;;7.95;;
37715;SDS011;23562;50.540;12.504;2023-06-22T09:30:36;12.27;;;7.68;;
37715;SDS011;23562;50.540;12.504;2023-06-22T09:33:02;10.10;;;7.57;;
37715;SDS011;23562;50.540;12.504;2023-06-22T09:35:27;8.55;;;7.32;;
37715;SDS011;23562;50.540;12.504;2023-06-22T09:37:52;9.38;;;7.07;;
37715;SDS011;23562;50.540;12.504;2023-06-22T09:40:17;11.32;;;7.82;;
37715;SDS011;23562;50.540;12.504;2023-06-22T09:42:42;11.53;;;7.70;;
37715;SDS011;23562;50.540;12.504;2023-06-22T09:45:08;9.40;;;7.43;;
37715;SDS011;23562;50.540;12.504;2023-06-22T09:47:33;8.57;;;7.22;;
37715;SDS011;23562;50.540;12.504;2023-06-22T09:49:58;8.90;;;6.93;;
37715;SDS011;23562;50.540;12.504;2023-06-22T09:52:24;9.70;;;7.57;;
37715;SDS011;23562;50.540;12.504;2023-06-22T09:54:50;8.80;;;7.83;;
37715;SDS011;23562;50.540;12.504;2023-06-22T09:57:15;8.73;;;7.82;;
37715;SDS011;23562;50.540;12.504;2023-06-22T09:59:40;8.32;;;7.28;;
37715;SDS011;23562;50.540;12.504;2023-06-22T10:02:06;11.38;;;7.38;;
37715;SDS011;23562;50.540;12.504;2023-06-22T10:04:31;8.35;;;7.10;;
37715;SDS011;23562;50.540;12.504;2023-06-22T10:06:56;8.20;;;7.40;;
37715;SDS011;23562;50.540;12.504;2023-06-22T10:09:22;13.02;;;7.90;;
37715;SDS011;23562;50.540;12.504;2023-06-22T10:11:47;10.40;;;8.17;;
37715;SDS011;23562;50.540;12.504;2023-06-22T10:14:12;9.80;;;7.53;;
37715;SDS011;23562;50.540;12.504;2023-06-22T10:16:37;11.23;;;8.88;;
37715;SDS011;23562;50.540;12.504;2023-06-22T10:19:02;9.27;;;7.83;;
37715;SDS011;23562;50.540;12.504;2023-06-22T10:21:27;10.93;;;7.95;;
37715;SDS011;23562;50.540;12.504;2023-06-22T10:23:53;9.38;;;8.32;;
37715;SDS011;23562;50.540;12.504;2023-06-22T10:26:18;10.97;;;8.03;;
37715;SDS011;23562;50.540;12.504;2023-06-22T10:28:43;8.97;;;7.97;;
37715;SDS011;23562;50.540;12.504;2023-06-22T10:31:08;10.75;;;7.93;;
37715;SDS011;23562;50.540;12.504;2023-06-22T10:33:34;12.82;;;8.15;;
37715;SDS011;23562;50.540;12.504;2023-06-22T10:35:59;9.37;;;7.93;;
37715;SDS011;23562;50.540;12.504;2023-06-22T10:38:24;12.53;;;8.10;;
37715;SDS011;23562;50.540;12.504;2023-06-22T10:40:49;9.10;;;8.13;;
37715;SDS011;23562;50.540;12.504;2023-06-22T10:43:14;9.25;;;8.35;;
37715;SDS011;23562;50.540;12.504;2023-06-22T10:45:39;12.25;;;8.35;;
37715;SDS011;23562;50.540;12.504;2023-06-22T10:48:04;8.38;;;7.43;;
37715;SDS011;23562;50.540;12.504;2023-06-22T10:50:29;9.30;;;7.90;;
37715;SDS011;23562;50.540;12.504;2023-06-22T10:52:55;8.65;;;7.68;;
37715;SDS011;23562;50.540;12.504;2023-06-22T10:55:20;9.52;;;8.52;;
37715;SDS011;23562;50.540;12.504;2023-06-22T10:57:45;8.73;;;7.83;;
37715;SDS011;23562;50.540;12.504;2023-06-22T11:00:12;9.85;;;7.68;;
37715;SDS011;23562;50.540;12.504;2023-06-22T11:02:37;11.00;;;8.27;;
37715;SDS011;23562;50.540;12.504;2023-06-22T11:05:02;9.47;;;8.03;;
37715;SDS011;23562;50.540;12.504;2023-06-22T11:07:28;10.23;;;7.53;;
37715;SDS011;23562;50.540;12.504;2023-06-22T11:09:54;8.52;;;7.68;;
37715;SDS011;23562;50.540;12.504;2023-06-22T11:12:19;8.60;;;7.70;;
37715;SDS011;23562;50.540;12.504;2023-06-22T11:14:44;11.20;;;7.47;;
37715;SDS011;23562;50.540;12.504;2023-06-22T11:17:09;10.47;;;8.07;;
37715;SDS011;23562;50.540;12.504;2023-06-22T11:19:34;10.80;;;7.78;;
37715;SDS011;23562;50.540;12.504;2023-06-22T11:22:00;10.55;;;7.95;;
37715;SDS011;23562;50.540;12.504;2023-06-22T11:24:25;8.40;;;7.32;;
37715;SDS011;23562;50.540;12.504;2023-06-22T11:26:51;11.13;;;7.70;;
37715;SDS011;23562;50.540;12.504;2023-06-22T11:29:16;8.45;;;7.65;;
37715;SDS011;23562;50.540;12.504;2023-06-22T11:31:41;8.77;;;7.90;;
37715;SDS011;23562;50.540;12.504;2023-06-22T11:34:07;8.70;;;7.80;;
37715;SDS011;23562;50.540;12.504;2023-06-22T11:36:32;9.73;;;8.73;;
37715;SDS011;23562;50.540;12.504;2023-06-22T11:38:58;9.20;;;8.23;;
37715;SDS011;23562;50.540;12.504;2023-06-22T11:41:23;13.40;;;8.43;;
37715;SDS011;23562;50.540;12.504;2023-06-22T11:43:48;9.77;;;8.80;;
37715;SDS011;23562;50.540;12.504;2023-06-22T11:46:13;9.77;;;8.02;;
37715;SDS011;23562;50.540;12.504;2023-06-22T11:48:39;10.55;;;8.15;;
37715;SDS011;23562;50.540;12.504;2023-06-22T11:51:04;13.85;;;9.30;;
37715;SDS011;23562;50.540;12.504;2023-06-22T11:53:31;12.80;;;9.05;;
37715;SDS011;23562;50.540;12.504;2023-06-22T11:55:56;11.40;;;8.63;;
37715;SDS011;23562;50.540;12.504;2023-06-22T11:58:21;9.90;;;8.80;;
37715;SDS011;23562;50.540;12.504;2023-06-22T12:00:47;11.10;;;8.88;;
37715;SDS011;23562;50.540;12.504;2023-06-22T12:03:12;10.10;;;9.02;;
37715;SDS011;23562;50.540;12.504;2023-06-22T12:05:39;11.23;;;9.23;;
37715;SDS011;23562;50.540;12.504;2023-06-22T12:08:04;11.80;;;9.02;;
37715;SDS011;23562;50.540;12.504;2023-06-22T12:10:29;10.85;;;8.55;;
37715;SDS011;23562;50.540;12.504;2023-06-22T12:12:55;14.68;;;8.90;;
37715;SDS011;23562;50.540;12.504;2023-06-22T12:15:20;9.70;;;8.70;;
37715;SDS011;23562;50.540;12.504;2023-06-22T12:17:45;10.00;;;8.80;;
37715;SDS011;23562;50.540;12.504;2023-06-22T12:20:10;11.27;;;8.67;;
37715;SDS011;23562;50.540;12.504;2023-06-22T12:22:35;9.48;;;8.48;;
37715;SDS011;23562;50.540;12.504;2023-06-22T12:25:02;11.43;;;9.15;;
37715;SDS011;23562;50.540;12.504;2023-06-22T12:27:28;10.90;;;9.57;;
37715;SDS011;23562;50.540;12.504;2023-06-22T12:29:54;9.70;;;8.77;;
37715;SDS011;23562;50.540;12.504;2023-06-22T12:32:20;10.98;;;8.90;;
37715;SDS011;23562;50.540;12.504;2023-06-22T12:34:45;11.93;;;9.10;;
37715;SDS011;23562;50.540;12.504;2023-06-22T12:37:10;10.02;;;8.90;;
37715;SDS011;23562;50.540;12.504;2023-06-22T12:39:35;10.80;;;9.17;;
37715;SDS011;23562;50.540;12.504;2023-06-22T12:42:00;9.77;;;8.77;;
37715;SDS011;23562;50.540;12.504;2023-06-22T12:44:26;12.77;;;9.43;;
37715;SDS011;23562;50.540;12.504;2023-06-22T12:46:51;10.83;;;8.83;;
37715;SDS011;23562;50.540;12.504;2023-06-22T12:49:16;10.70;;;8.93;;
37715;SDS011;23562;50.540;12.504;2023-06-22T12:51:42;12.43;;;8.70;;
37715;SDS011;23562;50.540;12.504;2023-06-22T12:54:07;11.85;;;8.68;;
37715;SDS011;23562;50.540;12.504;2023-06-22T12:56:32;13.80;;;8.33;;
37715;SDS011;23562;50.540;12.504;2023-06-22T12:58:57;9.32;;;8.43;;
37715;SDS011;23562;50.540;12.504;2023-06-22T13:01:23;10.38;;;9.15;;
37715;SDS011;23562;50.540;12.504;2023-06-22T13:03:49;10.52;;;8.98;;
37715;SDS011;23562;50.540;12.504;2023-06-22T13:06:14;12.63;;;9.13;;
37715;SDS011;23562;50.540;12.504;2023-06-22T13:08:39;12.23;;;8.60;;
37715;SDS011;23562;50.540;12.504;2023-06-22T13:11:04;10.53;;;8.53;;
37715;SDS011;23562;50.540;12.504;2023-06-22T13:13:29;10.73;;;8.50;;
37715;SDS011;23562;50.540;12.504;2023-06-22T13:15:55;10.82;;;8.48;;
37715;SDS011;23562;50.540;12.504;2023-06-22T13:18:20;11.07;;;8.80;;
37715;SDS011;23562;50.540;12.504;2023-06-22T13:20:45;10.60;;;8.05;;
37715;SDS011;23562;50.540;12.504;2023-06-22T13:23:10;12.90;;;8.43;;
37715;SDS011;23562;50.540;12.504;2023-06-22T13:25:35;11.93;;;9.07;;
37715;SDS011;23562;50.540;12.504;2023-06-22T13:28:01;11.48;;;8.30;;
37715;SDS011;23562;50.540;12.504;2023-06-22T13:30:26;10.82;;;8.07;;
37715;SDS011;23562;50.540;12.504;2023-06-22T13:32:51;13.00;;;8.48;;
37715;SDS011;23562;50.540;12.504;2023-06-22T13:35:16;10.80;;;7.67;;
37715;SDS011;23562;50.540;12.504;2023-06-22T13:37:41;10.57;;;7.73;;
37715;SDS011;23562;50.540;12.504;2023-06-22T13:40:07;14.77;;;8.43;;
37715;SDS011;23562;50.540;12.504;2023-06-22T13:42:32;12.32;;;8.20;;
37715;SDS011;23562;50.540;12.504;2023-06-22T13:44:57;15.13;;;8.82;;
37715;SDS011;23562;50.540;12.504;2023-06-22T13:47:23;13.00;;;8.17;;
37715;SDS011;23562;50.540;12.504;2023-06-22T13:49:48;12.82;;;8.25;;
37715;SDS011;23562;50.540;12.504;2023-06-22T13:52:13;12.88;;;8.60;;
37715;SDS011;23562;50.540;12.504;2023-06-22T13:54:38;13.63;;;7.85;;
37715;SDS011;23562;50.540;12.504;2023-06-22T13:57:04;10.77;;;7.68;;
37715;SDS011;23562;50.540;12.504;2023-06-22T13:59:29;12.93;;;8.50;;
37715;SDS011;23562;50.540;12.504;2023-06-22T14:01:54;12.23;;;8.50;;
37715;SDS011;23562;50.540;12.504;2023-06-22T14:04:19;15.90;;;9.10;;
37715;SDS011;23562;50.540;12.504;2023-06-22T14:06:44;11.90;;;8.30;;
37715;SDS011;23562;50.540;12.504;2023-06-22T14:09:09;14.45;;;8.10;;